createdAt,value
2023-04-02T00:00:36.845Z,8.50
2023-04-02T00:03:09.820Z,8.47
2023-04-02T00:05:50.579Z,8.49
2023-04-02T00:08:24.840Z,8.50
2023-04-02T00:11:00.697Z,8.51
2023-04-02T00:13:54.917Z,8.52
2023-04-02T00:16:24.967Z,8.52
2023-04-02T00:18:58.252Z,8.48
2023-04-02T00:21:32.369Z,8.45
2023-04-02T00:24:01.860Z,8.46
2023-04-02T00:26:37.112Z,8.46
2023-04-02T00:29:07.002Z,8.48
2023-04-02T00:31:38.322Z,8.50
2023-04-02T00:34:09.218Z,8.52
2023-04-02T00:36:37.296Z,8.56
2023-04-02T00:39:13.584Z,8.61
2023-04-02T00:41:47.253Z,8.60
2023-04-02T00:44:21.859Z,8.60
2023-04-02T00:46:51.120Z,8.60
2023-04-02T00:49:31.797Z,8.60
2023-04-02T00:52:13.298Z,8.61
2023-04-02T00:54:57.870Z,8.66
2023-04-02T00:57:28.289Z,8.61
2023-04-02T01:00:08.093Z,8.65
2023-04-02T01:02:38.519Z,8.65
2023-04-02T01:05:15.147Z,8.61
2023-04-02T01:07:43.071Z,8.65
2023-04-02T01:10:31.497Z,8.63
2023-04-02T01:13:06.402Z,8.67
2023-04-02T01:15:41.610Z,8.68
2023-04-02T01:18:26.555Z,8.68
2023-04-02T01:21:16.187Z,8.74
2023-04-02T01:23:56.165Z,8.75
2023-04-02T01:26:51.279Z,8.80
2023-04-02T01:29:32.698Z,8.83
2023-04-02T01:32:08.708Z,8.86
2023-04-02T01:34:38.127Z,8.84
2023-04-02T01:37:36.843Z,8.75
2023-04-02T01:40:22.148Z,8.76
2023-04-02T01:42:56.858Z,8.74
2023-04-02T01:45:25.111Z,8.77
2023-04-02T01:47:52.913Z,8.79
2023-04-02T01:50:20.437Z,8.87
2023-04-02T01:52:55.644Z,8.90
2023-04-02T01:55:49.755Z,8.93
2023-04-02T01:58:21.639Z,8.96
2023-04-02T02:01:21.730Z,8.97
2023-04-02T02:03:51.793Z,9.00
2023-04-02T02:06:20.094Z,9.00
2023-04-02T02:08:53.675Z,9.01
2023-04-02T02:11:24.616Z,9.03
2023-04-02T02:14:19.498Z,9.00
2023-04-02T02:16:48.295Z,9.00
2023-04-02T02:19:31.318Z,8.97
2023-04-02T02:22:16.799Z,8.96
2023-04-02T02:24:44.858Z,9.03
2023-04-02T02:27:40.334Z,9.02
2023-04-02T02:30:16.690Z,9.00
2023-04-02T02:32:53.714Z,9.02
2023-04-02T02:35:32.292Z,9.02
2023-04-02T02:38:14.786Z,8.99
2023-04-02T02:40:47.306Z,9.02
2023-04-02T02:43:17.489Z,9.05
2023-04-02T02:45:47.647Z,9.03
2023-04-02T02:48:19.641Z,9.04
2023-04-02T02:50:48.876Z,9.10
2023-04-02T02:53:22.831Z,9.09
2023-04-02T02:55:58.008Z,9.08
2023-04-02T02:58:31.431Z,9.08
2023-04-02T03:00:59.895Z,9.14
2023-04-02T03:03:32.760Z,9.24
2023-04-02T03:06:05.429Z,9.25
2023-04-02T03:08:51.520Z,9.31
2023-04-02T03:11:48.763Z,9.31
2023-04-02T03:14:21.226Z,9.35
2023-04-02T03:16:54.793Z,9.35
2023-04-02T03:19:44.822Z,9.36
2023-04-02T03:22:36.088Z,9.36
2023-04-02T03:25:37.146Z,9.34
2023-04-02T03:28:12.808Z,9.30
2023-04-02T03:30:49.665Z,9.29
2023-04-02T03:33:24.194Z,9.29
2023-04-02T03:36:03.861Z,9.30
2023-04-02T03:38:36.974Z,9.34
2023-04-02T03:41:10.153Z,9.37
2023-04-02T03:44:02.526Z,9.38
2023-04-02T03:46:42.176Z,9.41
2023-04-02T03:49:28.105Z,9.45
2023-04-02T03:52:14.703Z,9.40
2023-04-02T03:54:53.776Z,9.44
2023-04-02T03:57:37.625Z,9.40
2023-04-02T04:00:06.537Z,9.43
2023-04-02T04:02:52.649Z,9.41
2023-04-02T04:05:24.769Z,9.34
2023-04-02T04:07:59.929Z,9.32
2023-04-02T04:10:29.384Z,9.31
2023-04-02T04:13:05.894Z,9.27
2023-04-02T04:15:43.218Z,9.19
2023-04-02T04:18:43.898Z,9.17
2023-04-02T04:21:37.525Z,9.18
2023-04-02T04:24:21.823Z,9.15
2023-04-02T04:26:58.403Z,9.04
2023-04-02T04:29:31.974Z,9.07
2023-04-02T04:32:17.051Z,9.12
2023-04-02T04:34:53.571Z,9.07
2023-04-02T04:37:29.172Z,9.00
2023-04-02T04:40:07.464Z,8.96
2023-04-02T04:42:38.538Z,9.02
2023-04-02T04:45:23.400Z,9.01
2023-04-02T04:47:59.224Z,8.99
2023-04-02T04:50:38.875Z,9.07
2023-04-02T04:53:14.069Z,9.09
2023-04-02T04:55:47.630Z,9.10
2023-04-02T04:58:19.842Z,9.13
2023-04-02T05:01:01.823Z,9.09
2023-04-02T05:03:52.282Z,9.15
2023-04-02T05:06:36.774Z,9.18
2023-04-02T05:09:26.092Z,9.20
2023-04-02T05:12:33.039Z,9.20
2023-04-02T05:15:10.037Z,9.25
2023-04-02T05:18:09.244Z,9.29
2023-04-02T05:21:17.490Z,9.35
2023-04-02T05:23:52.962Z,9.35
2023-04-02T05:26:26.185Z,9.42
2023-04-02T05:29:08.822Z,9.45
2023-04-02T05:31:50.476Z,9.53
2023-04-02T05:34:25.506Z,9.54
2023-04-02T05:36:55.774Z,9.57
2023-04-02T05:39:25.511Z,9.59
2023-04-02T05:42:04.771Z,9.63
2023-04-02T05:44:41.664Z,9.67
2023-04-02T05:47:41.088Z,9.75
2023-04-02T05:50:12.511Z,9.78
2023-04-02T05:52:48.893Z,9.79
2023-04-02T05:55:17.129Z,9.80
2023-04-02T05:58:04.377Z,9.82
2023-04-02T06:00:39.269Z,9.85
2023-04-02T06:03:30.128Z,9.93
2023-04-02T06:06:03.969Z,10.00
2023-04-02T06:08:41.758Z,10.07
2023-04-02T06:11:13.756Z,10.18
2023-04-02T06:13:42.048Z,10.29
2023-04-02T06:16:15.180Z,10.41
2023-04-02T06:18:44.392Z,10.50
2023-04-02T06:21:17.555Z,10.60
2023-04-02T06:23:55.232Z,10.67
2023-04-02T06:26:26.496Z,10.72
2023-04-02T06:29:08.880Z,10.76
2023-04-02T06:31:38.854Z,10.79
2023-04-02T06:34:17.246Z,10.81
2023-04-02T06:36:46.266Z,10.82
2023-04-02T06:39:23.040Z,10.88
2023-04-02T06:42:02.378Z,10.92
2023-04-02T06:44:37.735Z,10.95
2023-04-02T06:47:43.407Z,10.97
2023-04-02T06:50:18.944Z,11.06
2023-04-02T06:52:48.629Z,11.09
2023-04-02T06:55:35.642Z,11.14
2023-04-02T06:58:03.437Z,11.18
2023-04-02T07:00:46.465Z,11.23
2023-04-02T07:03:19.764Z,11.32
2023-04-02T07:05:47.889Z,11.37
2023-04-02T07:08:15.754Z,11.40
2023-04-02T07:10:43.467Z,11.48
2023-04-02T07:13:21.553Z,11.52
2023-04-02T07:15:52.512Z,11.61
2023-04-02T07:18:29.849Z,11.72
2023-04-02T07:20:58.301Z,11.67
2023-04-02T07:23:26.812Z,11.70
2023-04-02T07:25:56.190Z,11.77
2023-04-02T07:28:24.212Z,11.82
2023-04-02T07:30:53.052Z,11.96
2023-04-02T07:33:24.350Z,12.25
2023-04-02T07:35:54.094Z,12.43
2023-04-02T07:38:21.737Z,12.70
2023-04-02T07:40:49.431Z,12.93
2023-04-02T07:43:17.281Z,13.39
2023-04-02T07:45:44.766Z,13.62
2023-04-02T07:48:13.832Z,13.90
2023-04-02T07:50:42.001Z,14.16
2023-04-02T07:53:27.925Z,14.13
2023-04-02T07:55:57.058Z,14.14
2023-04-02T07:58:24.646Z,14.27
2023-04-02T08:00:52.168Z,14.36
2023-04-02T08:03:20.113Z,14.47
2023-04-02T08:05:56.201Z,14.59
2023-04-02T08:08:24.960Z,14.77
2023-04-02T08:10:52.485Z,14.87
2023-04-02T08:13:20.015Z,15.05
2023-04-02T08:15:47.843Z,15.12
2023-04-02T08:18:15.342Z,15.29
2023-04-02T08:20:42.814Z,15.41
2023-04-02T08:23:17.192Z,15.47
2023-04-02T08:25:45.703Z,15.45
2023-04-02T08:28:13.939Z,15.26
2023-04-02T08:30:42.174Z,15.10
2023-04-02T08:33:09.759Z,15.10
2023-04-02T08:35:37.967Z,15.23
2023-04-02T08:38:05.935Z,15.17
2023-04-02T08:40:37.007Z,15.24
2023-04-02T08:43:23.748Z,15.17
2023-04-02T08:46:41.864Z,15.16
2023-04-02T08:49:19.929Z,15.03
2023-04-02T08:51:47.744Z,14.98
2023-04-02T08:54:27.986Z,15.02
2023-04-02T08:57:05.175Z,15.24
2023-04-02T08:59:39.369Z,15.43
2023-04-02T09:02:47.091Z,15.55
2023-04-02T09:05:26.671Z,15.69
2023-04-02T09:07:58.376Z,15.77
2023-04-02T09:10:37.430Z,15.84
2023-04-02T09:13:13.662Z,15.90
2023-04-02T09:15:41.488Z,16.04
2023-04-02T09:18:20.165Z,15.98
2023-04-02T09:20:49.500Z,16.01
2023-04-02T09:23:23.061Z,15.87
2023-04-02T09:26:03.506Z,15.80
2023-04-02T09:28:32.197Z,15.79
2023-04-02T09:31:07.000Z,15.85
2023-04-02T09:33:49.705Z,15.74
2023-04-02T09:36:39.494Z,15.59
2023-04-02T09:39:17.757Z,15.22
2023-04-02T09:41:52.882Z,15.40
2023-04-02T09:44:31.223Z,15.40
2023-04-02T09:47:04.544Z,15.45
2023-04-02T09:49:37.491Z,15.21
2023-04-02T09:52:19.169Z,15.16
2023-04-02T09:55:04.766Z,15.22
2023-04-02T09:57:33.547Z,15.23
2023-04-02T10:00:31.972Z,15.21
2023-04-02T10:03:26.802Z,15.65
2023-04-02T10:06:09.454Z,16.34
2023-04-02T10:08:40.305Z,16.93
2023-04-02T10:11:43.608Z,17.26
2023-04-02T10:14:25.630Z,17.42
2023-04-02T10:17:08.518Z,17.65
2023-04-02T10:19:38.954Z,17.91
2023-04-02T10:22:16.519Z,18.08
2023-04-02T10:24:44.744Z,17.74
2023-04-02T10:27:29.830Z,18.01
2023-04-02T10:30:39.304Z,18.34
2023-04-02T10:33:18.520Z,17.63
2023-04-02T10:36:11.415Z,17.62
2023-04-02T10:38:54.586Z,17.77
2023-04-02T10:41:32.981Z,18.06
2023-04-02T10:44:29.482Z,18.20
2023-04-02T10:47:22.445Z,18.18
2023-04-02T10:50:05.109Z,18.15
2023-04-02T10:52:39.384Z,17.31
2023-04-02T10:55:18.132Z,16.83
2023-04-02T10:57:46.830Z,16.71
2023-04-02T11:00:28.772Z,16.48
2023-04-02T11:03:07.174Z,16.37
2023-04-02T11:05:57.593Z,16.33
2023-04-02T11:08:39.761Z,16.51
2023-04-02T11:11:10.170Z,16.32
2023-04-02T11:13:46.973Z,16.15
2023-04-02T11:16:15.628Z,15.88
2023-04-02T11:18:44.946Z,16.02
2023-04-02T11:21:30.455Z,16.08
2023-04-02T11:24:02.836Z,15.99
2023-04-02T11:26:42.688Z,15.89
2023-04-02T11:29:28.707Z,15.73
2023-04-02T11:32:20.787Z,15.45
2023-04-02T11:34:56.393Z,15.19
2023-04-02T11:37:45.745Z,15.24
2023-04-02T11:40:16.511Z,15.24
2023-04-02T11:42:51.627Z,15.28
2023-04-02T11:45:22.302Z,15.27
2023-04-02T11:48:17.166Z,15.33
2023-04-02T11:50:46.487Z,15.47
2023-04-02T11:53:17.439Z,15.56
2023-04-02T11:56:06.568Z,15.59
2023-04-02T11:58:56.164Z,15.46
2023-04-02T12:01:45.522Z,15.33
2023-04-02T12:04:23.362Z,15.19
2023-04-02T12:07:26.768Z,15.24
2023-04-02T12:09:57.999Z,15.20
2023-04-02T12:12:38.848Z,15.03
2023-04-02T12:15:28.138Z,15.09
2023-04-02T12:18:10.541Z,15.13
2023-04-02T12:20:38.857Z,15.28
2023-04-02T12:23:06.843Z,15.28
2023-04-02T12:25:40.482Z,15.36
2023-04-02T12:28:11.460Z,15.41
2023-04-02T12:30:39.836Z,15.48
2023-04-02T12:33:19.644Z,15.48
2023-04-02T12:35:49.378Z,15.53
2023-04-02T12:38:25.239Z,15.65
2023-04-02T12:40:58.515Z,15.69
2023-04-02T12:43:34.891Z,15.63
2023-04-02T12:46:05.760Z,15.50
2023-04-02T12:48:35.240Z,15.27
2023-04-02T12:51:04.236Z,15.18
2023-04-02T12:53:39.717Z,15.05
2023-04-02T12:56:08.539Z,15.12
2023-04-02T12:58:37.500Z,15.14
2023-04-02T13:01:20.661Z,15.01
2023-04-02T13:04:22.114Z,15.29
2023-04-02T13:06:52.314Z,15.60
2023-04-02T13:09:35.826Z,15.78
2023-04-02T13:12:03.818Z,16.23
2023-04-02T13:14:31.751Z,16.64
2023-04-02T13:16:59.260Z,16.80
2023-04-02T13:19:32.528Z,16.66
2023-04-02T13:22:03.024Z,16.75
2023-04-02T13:24:32.962Z,16.35
2023-04-02T13:27:03.291Z,16.35
2023-04-02T13:29:35.628Z,16.51
2023-04-02T13:32:06.418Z,16.65
2023-04-02T13:34:33.964Z,16.92
2023-04-02T13:37:01.468Z,17.32
2023-04-02T13:39:30.532Z,17.33
2023-04-02T13:42:01.678Z,17.17
2023-04-02T13:44:31.913Z,16.90
2023-04-02T13:47:00.711Z,16.74
2023-04-02T13:49:28.543Z,16.61
2023-04-02T13:51:59.238Z,16.39
2023-04-02T13:54:48.908Z,16.25
2023-04-02T13:57:17.099Z,16.12
2023-04-02T13:59:44.648Z,16.16
2023-04-02T14:02:17.303Z,16.35
2023-04-02T14:04:51.159Z,16.50
2023-04-02T14:07:39.952Z,16.52
2023-04-02T14:10:26.160Z,16.73
2023-04-02T14:13:28.896Z,16.94
2023-04-02T14:16:42.260Z,16.82
2023-04-02T14:19:38.390Z,16.54
2023-04-02T14:22:38.023Z,16.11
2023-04-02T14:25:08.248Z,16.06
2023-04-02T14:27:51.269Z,15.77
2023-04-02T14:30:36.798Z,15.77
2023-04-02T14:33:38.834Z,15.80
2023-04-02T14:36:16.822Z,16.25
2023-04-02T14:38:55.746Z,16.46
2023-04-02T14:41:26.954Z,16.62
2023-04-02T14:44:06.785Z,16.79
2023-04-02T14:46:37.965Z,16.85
2023-04-02T14:49:26.815Z,16.71
2023-04-02T14:52:04.540Z,16.38
2023-04-02T14:54:45.249Z,16.23
2023-04-02T14:57:23.649Z,15.96
2023-04-02T14:59:58.707Z,15.85
2023-04-02T15:02:42.450Z,15.75
2023-04-02T15:05:17.840Z,15.79
2023-04-02T15:07:57.887Z,15.99
2023-04-02T15:10:31.776Z,15.95
2023-04-02T15:13:04.466Z,15.85
2023-04-02T15:15:47.590Z,15.57
2023-04-02T15:18:17.402Z,15.51
2023-04-02T15:21:07.604Z,15.40
2023-04-02T15:23:46.243Z,15.25
2023-04-02T15:26:26.421Z,15.11
2023-04-02T15:29:25.999Z,15.13
2023-04-02T15:32:18.740Z,15.38
2023-04-02T15:35:18.730Z,15.59
2023-04-02T15:37:55.599Z,15.58
2023-04-02T15:40:38.131Z,15.52
2023-04-02T15:43:24.592Z,15.23
2023-04-02T15:45:52.045Z,15.12
2023-04-02T15:48:44.607Z,14.97
2023-04-02T15:51:45.445Z,14.90
2023-04-02T15:54:22.803Z,14.84
2023-04-02T15:57:15.094Z,14.72
2023-04-02T16:00:22.575Z,14.64
2023-04-02T16:03:19.981Z,14.58
2023-04-02T16:05:59.643Z,14.20
2023-04-02T16:08:50.473Z,14.09
2023-04-02T16:11:17.998Z,14.12
2023-04-02T16:13:47.119Z,14.10
2023-04-02T16:16:24.007Z,14.18
2023-04-02T16:19:16.399Z,14.14
2023-04-02T16:21:57.261Z,14.13
2023-04-02T16:24:25.093Z,14.03
2023-04-02T16:27:24.706Z,14.02
2023-04-02T16:30:17.893Z,14.01
2023-04-02T16:32:48.187Z,14.05
2023-04-02T16:35:43.308Z,13.94
2023-04-02T16:38:36.227Z,13.89
2023-04-02T16:41:15.729Z,13.89
2023-04-02T16:43:58.216Z,13.82
2023-04-02T16:47:03.874Z,13.74
2023-04-02T16:49:38.748Z,13.72
2023-04-02T16:52:41.001Z,13.68
2023-04-02T16:55:26.831Z,13.63
2023-04-02T16:58:00.665Z,13.57
2023-04-02T17:01:08.588Z,13.51
2023-04-02T17:04:03.979Z,13.47
2023-04-02T17:06:55.261Z,13.46
2023-04-02T17:09:34.017Z,13.40
2023-04-02T17:12:23.263Z,13.38
2023-04-02T17:15:04.635Z,13.33
2023-04-02T17:17:33.398Z,13.30
2023-04-02T17:20:01.553Z,13.25
2023-04-02T17:22:31.557Z,13.17
2023-04-02T17:25:03.303Z,13.13
2023-04-02T17:27:42.202Z,13.02
2023-04-02T17:30:17.321Z,12.97
2023-04-02T17:32:45.463Z,12.96
2023-04-02T17:35:32.224Z,12.87
2023-04-02T17:38:19.780Z,12.79
2023-04-02T17:40:53.356Z,12.76
2023-04-02T17:44:01.161Z,12.68
2023-04-02T17:46:31.591Z,12.64
2023-04-02T17:49:46.239Z,12.67
2023-04-02T17:52:19.911Z,12.65
2023-04-02T17:55:22.575Z,12.67
2023-04-02T17:58:18.001Z,12.68
2023-04-02T18:00:45.752Z,12.64
2023-04-02T18:03:35.817Z,12.61
2023-04-02T18:06:35.536Z,12.63
2023-04-02T18:09:39.456Z,12.63
2023-04-02T18:12:25.405Z,12.65
2023-04-02T18:15:21.285Z,12.62
2023-04-02T18:18:05.733Z,12.58
2023-04-02T18:20:42.458Z,12.60
2023-04-02T18:23:40.354Z,12.53
2023-04-02T18:26:27.872Z,12.54
2023-04-02T18:29:04.213Z,12.55
2023-04-02T18:32:01.357Z,12.51
2023-04-02T18:34:47.393Z,12.44
2023-04-02T18:37:38.816Z,12.32
2023-04-02T18:40:31.854Z,12.35
2023-04-02T18:43:20.760Z,12.34
2023-04-02T18:46:15.451Z,12.32
2023-04-02T18:49:14.159Z,12.36
2023-04-02T18:51:41.656Z,12.39
2023-04-02T18:54:09.395Z,12.29
2023-04-02T18:56:40.576Z,12.25
2023-04-02T18:59:48.949Z,12.24
2023-04-02T19:02:35.918Z,12.21
2023-04-02T19:05:13.631Z,12.15
2023-04-02T19:07:44.350Z,12.06
2023-04-02T19:10:35.352Z,12.05
2023-04-02T19:13:08.201Z,11.98
2023-04-02T19:15:58.627Z,11.89
2023-04-02T19:18:41.743Z,11.93
2023-04-02T19:21:35.675Z,11.82
2023-04-02T19:24:26.346Z,11.77
2023-04-02T19:26:59.441Z,11.72
2023-04-02T19:29:45.884Z,11.73
2023-04-02T19:32:23.148Z,11.59
2023-04-02T19:35:06.434Z,11.60
2023-04-02T19:37:41.363Z,11.55
2023-04-02T19:40:27.784Z,11.64
2023-04-02T19:42:55.603Z,11.51
2023-04-02T19:45:39.665Z,11.50
2023-04-02T19:48:24.488Z,11.50
2023-04-02T19:50:53.052Z,11.40
2023-04-02T19:53:20.634Z,11.34
2023-04-02T19:55:48.268Z,11.43
2023-04-02T19:58:31.325Z,11.36
2023-04-02T20:00:59.004Z,11.22
2023-04-02T20:03:27.310Z,11.21
2023-04-02T20:05:54.924Z,11.24
2023-04-02T20:08:22.551Z,11.21
2023-04-02T20:10:51.015Z,11.03
2023-04-02T20:13:18.766Z,11.00
2023-04-02T20:15:47.315Z,10.85
2023-04-02T20:18:15.098Z,10.66
2023-04-02T20:20:46.241Z,10.60
2023-04-02T20:23:14.121Z,10.39
2023-04-02T20:25:52.800Z,10.40
2023-04-02T20:28:21.698Z,10.31
2023-04-02T20:30:50.753Z,10.13
2023-04-02T20:33:23.525Z,10.02
2023-04-02T20:35:52.374Z,9.88
2023-04-02T20:38:19.941Z,9.86
2023-04-02T20:40:52.946Z,9.61
2023-04-02T20:43:20.844Z,9.39
2023-04-02T20:45:55.872Z,9.24
2023-04-02T20:48:24.201Z,9.19
2023-04-02T20:50:52.007Z,9.05
2023-04-02T20:53:19.814Z,8.93
2023-04-02T20:55:47.669Z,8.91
2023-04-02T20:58:17.392Z,8.81
2023-04-02T21:00:45.504Z,8.81
2023-04-02T21:03:13.334Z,8.77
2023-04-02T21:05:47.965Z,8.65
2023-04-02T21:08:15.869Z,8.55
2023-04-02T21:10:43.421Z,8.45
2023-04-02T21:13:10.873Z,8.25
2023-04-02T21:15:43.198Z,8.12
2023-04-02T21:18:10.961Z,8.02
2023-04-02T21:20:38.755Z,7.82
2023-04-02T21:23:06.225Z,7.70
2023-04-02T21:25:33.810Z,7.70
2023-04-02T21:28:01.702Z,7.57
2023-04-02T21:30:29.238Z,7.55
2023-04-02T21:32:56.757Z,7.59
2023-04-02T21:35:24.578Z,7.47
2023-04-02T21:37:52.072Z,7.28
2023-04-02T21:40:19.783Z,7.31
2023-04-02T21:42:49.573Z,7.33
2023-04-02T21:45:17.058Z,7.30
2023-04-02T21:47:44.520Z,7.31
2023-04-02T21:50:12.358Z,7.26
2023-04-02T21:52:39.821Z,7.19
2023-04-02T21:55:07.623Z,7.12
2023-04-02T21:57:35.526Z,7.01
2023-04-02T22:00:08.237Z,6.99
2023-04-02T22:02:36.201Z,6.85
2023-04-02T22:05:04.123Z,6.84
2023-04-02T22:07:31.639Z,6.75
2023-04-02T22:09:59.490Z,6.71
2023-04-02T22:12:26.958Z,6.75
2023-04-02T22:14:54.461Z,6.65
2023-04-02T22:17:22.372Z,6.58
2023-04-02T22:19:49.889Z,6.51
2023-04-02T22:22:17.401Z,6.43
2023-04-02T22:24:45.198Z,6.48
2023-04-02T22:27:12.780Z,6.49
2023-04-02T22:29:40.316Z,6.44
2023-04-02T22:32:08.291Z,6.39
2023-04-02T22:34:36.873Z,6.39
2023-04-02T22:37:04.380Z,6.31
2023-04-02T22:39:32.190Z,6.25
2023-04-02T22:41:59.698Z,6.19
2023-04-02T22:44:27.279Z,6.25
2023-04-02T22:46:55.093Z,6.16
2023-04-02T22:49:22.558Z,6.06
2023-04-02T22:51:50.060Z,5.98
2023-04-02T22:54:17.846Z,5.87
2023-04-02T22:56:45.378Z,5.91
2023-04-02T22:59:13.018Z,5.80
2023-04-02T23:01:41.204Z,5.86
2023-04-02T23:04:09.031Z,5.81
2023-04-02T23:06:36.545Z,5.81
2023-04-02T23:09:04.311Z,5.71
2023-04-02T23:11:31.841Z,5.62
2023-04-02T23:13:59.468Z,5.60
2023-04-02T23:16:29.372Z,5.60
2023-04-02T23:18:58.205Z,5.57
2023-04-02T23:21:26.791Z,5.58
2023-04-02T23:23:55.143Z,5.48
2023-04-02T23:26:27.210Z,5.45
2023-04-02T23:28:59.562Z,5.37
2023-04-02T23:31:27.948Z,5.36
2023-04-02T23:33:55.858Z,5.28
2023-04-02T23:36:26.220Z,5.29
2023-04-02T23:38:55.846Z,5.26
2023-04-02T23:41:27.021Z,5.25
2023-04-02T23:43:56.304Z,5.19
2023-04-02T23:46:25.731Z,5.21
2023-04-02T23:48:54.322Z,5.24
2023-04-02T23:51:22.911Z,5.23
2023-04-02T23:53:51.914Z,5.15
2023-04-02T23:56:19.963Z,5.16
2023-04-02T23:58:47.738Z,5.18
